PWSweather.com
Personal Weather Stations
Station Observations
GEELONGWX1
Bell Post Hill, GeelongAU

Bell Post HillGeelongAU

Lat: -38.101, Lon: 144.326

Elevation: 204

Station Type: Davis Vantage Pro2

http://www.geelongweather.com

High Low Average
Temperature 54.6°F12.6°F 46.6°F8.1°F 49.3°F9.6°F
Dew Point 46.1°F7.8°F 40.0°F4.4°F 42.9°F6.1°F
Winds 12.7 mph SSW20.4 mph SSW Calm Calm 6.2 mph 10.0 mph
Wind Gusts 18.4 mph29.6 mph -- 9.7 mph15.6 mph
Humidity 91% 60% 79%
Pressure 30.24 in1024.00 in 29.74 in1007.10 in -
Precipitation 0.00 in0.00 in - -
Hour Temp Dew Point Humidity Winds Wind Gusts Pressure Precip Precip Rate Daily Precip Total
12:00 AM 48.2°F9.0°C 41.0°F5.0°C 76% 4.6 mph W7.4 kmh W 9.2 mph14.8 kmh 29.75 in1007.5 mb - 0.00 in0.0 mm 0.00 in0.0 mm
12:10 AM 48.1°F8.9°C 41.2°F5.1°C 77% 4.6 mph WSW7.4 kmh WSW 9.2 mph14.8 kmh 29.75 in1007.5 mb - 0.00 in0.0 mm 0.00 in0.0 mm
12:20 AM 47.9°F8.8°C 41.1°F5.1°C 77% 3.5 mph W5.6 kmh W 4.6 mph7.4 kmh 29.75 in1007.5 mb - 0.00 in0.0 mm 0.00 in0.0 mm
12:30 AM 47.8°F8.8°C 41.3°F5.2°C 78% 3.5 mph WSW5.6 kmh WSW 4.6 mph7.4 kmh 29.75 in1007.5 mb - 0.00 in0.0 mm 0.00 in0.0 mm
12:40 AM 47.7°F8.7°C 40.9°F4.9°C 77% 3.5 mph WSW5.6 kmh WSW 4.6 mph7.4 kmh 29.75 in1007.5 mb - 0.00 in0.0 mm 0.00 in0.0 mm
12:50 AM 47.5°F8.6°C 41.0°F5.0°C 78% 2.3 mph WSW3.7 kmh WSW 3.5 mph5.6 kmh 29.74 in1007.1 mb - 0.00 in0.0 mm 0.00 in0.0 mm
01:00 AM 47.3°F8.5°C 40.8°F4.9°C 78% 1.2 mph WSW1.9 kmh WSW -- 29.74 in1007.1 mb - 0.00 in0.0 mm 0.00 in0.0 mm
01:10 AM 47.1°F8.4°C 40.6°F4.8°C 78% Calm Calm -- 29.74 in1007.1 mb - 0.00 in0.0 mm 0.00 in0.0 mm
01:20 AM 46.9°F8.3°C 40.4°F4.7°C 78% Calm Calm -- 29.75 in1007.5 mb - 0.00 in0.0 mm 0.00 in0.0 mm
01:30 AM 46.7°F8.2°C 40.6°F4.8°C 79% Calm Calm -- 29.75 in1007.5 mb - 0.00 in0.0 mm 0.00 in0.0 mm
01:40 AM 46.7°F8.2°C 40.5°F4.7°C 79% Calm Calm -- 29.75 in1007.5 mb - 0.00 in0.0 mm 0.00 in0.0 mm
01:50 AM 46.6°F8.1°C 40.8°F4.9°C 80% Calm Calm -- 29.75 in1007.5 mb - 0.00 in0.0 mm 0.00 in0.0 mm
02:00 AM 46.7°F8.2°C 41.2°F5.1°C 81% Calm Calm -- 29.75 in1007.5 mb - 0.00 in0.0 mm 0.00 in0.0 mm
02:10 AM 46.8°F8.2°C 41.3°F5.2°C 81% Calm Calm -- 29.75 in1007.5 mb - 0.00 in0.0 mm 0.00 in0.0 mm
02:20 AM 47.0°F8.3°C 41.4°F5.2°C 81% Calm Calm -- 29.75 in1007.5 mb - 0.00 in0.0 mm 0.00 in0.0 mm
02:30 AM 47.1°F8.4°C 41.6°F5.3°C 81% Calm Calm -- 29.75 in1007.5 mb - 0.00 in0.0 mm 0.00 in0.0 mm
02:40 AM 47.2°F8.4°C 41.7°F5.4°C 81% Calm Calm -- 29.76 in1007.8 mb - 0.00 in0.0 mm 0.00 in0.0 mm
02:50 AM 47.3°F8.5°C 41.8°F5.4°C 81% Calm Calm -- 29.76 in1007.8 mb - 0.00 in0.0 mm 0.00 in0.0 mm
03:00 AM 47.4°F8.6°C 41.9°F5.5°C 81% 4.6 mph WSW7.4 kmh WSW 8.1 mph13.0 kmh 29.76 in1007.8 mb - 0.00 in0.0 mm 0.00 in0.0 mm
03:10 AM 47.5°F8.6°C 42.3°F5.7°C 82% 6.9 mph SW11.1 kmh SW 11.5 mph18.5 kmh 29.76 in1007.8 mb - 0.00 in0.0 mm 0.00 in0.0 mm
03:20 AM 47.6°F8.7°C 42.1°F5.6°C 81% 6.9 mph SW11.1 kmh SW 9.2 mph14.8 kmh 29.76 in1007.8 mb - 0.00 in0.0 mm 0.00 in0.0 mm
03:30 AM 47.8°F8.8°C 42.6°F5.9°C 82% 5.8 mph SW9.3 kmh SW 8.1 mph13.0 kmh 29.77 in1008.1 mb - 0.00 in0.0 mm 0.00 in0.0 mm
03:40 AM 48.0°F8.9°C 43.1°F6.2°C 83% 6.9 mph SW11.1 kmh SW 10.4 mph16.7 kmh 29.78 in1008.5 mb - 0.00 in0.0 mm 0.00 in0.0 mm
03:50 AM 48.1°F8.9°C 43.2°F6.2°C 83% 4.6 mph SW7.4 kmh SW 6.9 mph11.1 kmh 29.78 in1008.5 mb - 0.00 in0.0 mm 0.00 in0.0 mm
04:00 AM 48.3°F9.1°C 43.4°F6.3°C 83% 9.2 mph SW14.8 kmh SW 15.0 mph24.1 kmh 29.78 in1008.5 mb - 0.00 in0.0 mm 0.00 in0.0 mm
04:10 AM 48.4°F9.1°C 43.5°F6.4°C 83% 9.2 mph SW14.8 kmh SW 12.7 mph20.4 kmh 29.78 in1008.5 mb - 0.00 in0.0 mm 0.00 in0.0 mm
04:20 AM 48.3°F9.1°C 43.4°F6.3°C 83% 9.2 mph SW14.8 kmh SW 13.8 mph22.2 kmh 29.78 in1008.5 mb - 0.00 in0.0 mm 0.00 in0.0 mm
04:30 AM 48.2°F9.0°C 43.6°F6.4°C 84% 8.1 mph SW13.0 kmh SW 11.5 mph18.5 kmh 29.79 in1008.8 mb - 0.00 in0.0 mm 0.00 in0.0 mm
04:40 AM 48.2°F9.0°C 43.9°F6.6°C 85% 5.8 mph SW9.3 kmh SW 10.4 mph16.7 kmh 29.80 in1009.1 mb - 0.00 in0.0 mm 0.00 in0.0 mm
04:50 AM 48.1°F8.9°C 43.8°F6.6°C 85% 6.9 mph SW11.1 kmh SW 9.2 mph14.8 kmh 29.80 in1009.1 mb - 0.00 in0.0 mm 0.00 in0.0 mm
05:00 AM 48.1°F8.9°C 44.1°F6.7°C 86% 6.9 mph SW11.1 kmh SW 11.5 mph18.5 kmh 29.81 in1009.5 mb - 0.00 in0.0 mm 0.00 in0.0 mm
05:10 AM 47.9°F8.8°C 43.9°F6.6°C 86% 8.1 mph SW13.0 kmh SW 10.4 mph16.7 kmh 29.81 in1009.5 mb - 0.00 in0.0 mm 0.00 in0.0 mm
05:20 AM 47.9°F8.8°C 43.9°F6.6°C 86% 6.9 mph SW11.1 kmh SW 11.5 mph18.5 kmh 29.82 in1009.8 mb - 0.00 in0.0 mm 0.00 in0.0 mm
05:30 AM 48.1°F8.9°C 44.4°F6.9°C 87% 5.8 mph SW9.3 kmh SW 11.5 mph18.5 kmh 29.83 in1010.2 mb - 0.00 in0.0 mm 0.00 in0.0 mm
05:40 AM 48.2°F9.0°C 44.5°F6.9°C 87% 3.5 mph SSW5.6 kmh SSW 4.6 mph7.4 kmh 29.83 in1010.2 mb - 0.00 in0.0 mm 0.00 in0.0 mm
05:50 AM 48.2°F9.0°C 44.5°F6.9°C 87% 9.2 mph SSW14.8 kmh SSW 15.0 mph24.1 kmh 29.83 in1010.2 mb - 0.00 in0.0 mm 0.00 in0.0 mm
06:00 AM 48.2°F9.0°C 44.5°F6.9°C 87% 4.6 mph SW7.4 kmh SW 11.5 mph18.5 kmh 29.84 in1010.5 mb - 0.00 in0.0 mm 0.00 in0.0 mm
06:10 AM 48.0°F8.9°C 44.3°F6.8°C 87% 6.9 mph SSW11.1 kmh SSW 11.5 mph18.5 kmh 29.85 in1010.8 mb - 0.00 in0.0 mm 0.00 in0.0 mm
06:20 AM 47.8°F8.8°C 44.1°F6.7°C 87% 6.9 mph SSW11.1 kmh SSW 11.5 mph18.5 kmh 29.86 in1011.2 mb - 0.00 in0.0 mm 0.00 in0.0 mm
06:30 AM 47.7°F8.7°C 44.3°F6.8°C 88% 3.5 mph SSW5.6 kmh SSW 6.9 mph11.1 kmh 29.87 in1011.5 mb - 0.00 in0.0 mm 0.00 in0.0 mm
06:40 AM 47.6°F8.7°C 44.2°F6.8°C 88% 5.8 mph SW9.3 kmh SW 10.4 mph16.7 kmh 29.88 in1011.9 mb - 0.00 in0.0 mm 0.00 in0.0 mm
06:50 AM 47.5°F8.6°C 44.1°F6.7°C 88% 6.9 mph S11.1 kmh S 10.4 mph16.7 kmh 29.89 in1012.2 mb - 0.00 in0.0 mm 0.00 in0.0 mm
07:00 AM 47.7°F8.7°C 44.6°F7.0°C 89% 4.6 mph SW7.4 kmh SW 5.8 mph9.3 kmh 29.90 in1012.5 mb - 0.00 in0.0 mm 0.00 in0.0 mm
07:10 AM 47.9°F8.8°C 44.8°F7.1°C 89% 5.8 mph S9.3 kmh S 10.4 mph16.7 kmh 29.91 in1012.9 mb - 0.00 in0.0 mm 0.00 in0.0 mm
07:20 AM 48.0°F8.9°C 44.9°F7.2°C 89% 4.6 mph S7.4 kmh S 8.1 mph13.0 kmh 29.92 in1013.2 mb - 0.00 in0.0 mm 0.00 in0.0 mm
07:30 AM 48.1°F8.9°C 45.3°F7.4°C 90% 8.1 mph S13.0 kmh S 10.4 mph16.7 kmh 29.93 in1013.5 mb - 0.00 in0.0 mm 0.00 in0.0 mm
07:40 AM 48.0°F8.9°C 45.2°F7.3°C 90% 5.8 mph S9.3 kmh S 8.1 mph13.0 kmh 29.94 in1013.9 mb - 0.00 in0.0 mm 0.00 in0.0 mm
07:50 AM 47.9°F8.8°C 45.1°F7.3°C 90% 5.8 mph S9.3 kmh S 10.4 mph16.7 kmh 29.95 in1014.2 mb - 0.00 in0.0 mm 0.00 in0.0 mm
08:00 AM 47.8°F8.8°C 45.0°F7.2°C 90% 4.6 mph S7.4 kmh S 5.8 mph9.3 kmh 29.95 in1014.2 mb - 0.00 in0.0 mm 0.00 in0.0 mm
08:10 AM 47.7°F8.7°C 44.9°F7.2°C 90% 3.5 mph SW5.6 kmh SW 3.5 mph5.6 kmh 29.96 in1014.6 mb - 0.00 in0.0 mm 0.00 in0.0 mm
08:20 AM 47.7°F8.7°C 44.9°F7.2°C 90% 2.3 mph SSW3.7 kmh SSW 3.5 mph5.6 kmh 29.97 in1014.9 mb - 0.00 in0.0 mm 0.00 in0.0 mm
08:30 AM 47.7°F8.7°C 44.9°F7.2°C 90% 3.5 mph SSW5.6 kmh SSW 6.9 mph11.1 kmh 29.98 in1015.2 mb - 0.00 in0.0 mm 0.00 in0.0 mm
08:40 AM 47.9°F8.8°C 45.4°F7.4°C 91% 4.6 mph S7.4 kmh S 6.9 mph11.1 kmh 29.99 in1015.6 mb - 0.00 in0.0 mm 0.00 in0.0 mm
08:50 AM 48.3°F9.1°C 45.8°F7.7°C 91% 2.3 mph S3.7 kmh S 3.5 mph5.6 kmh 30.00 in1015.9 mb - 0.00 in0.0 mm 0.00 in0.0 mm
09:00 AM 48.6°F9.2°C 46.1°F7.8°C 91% 3.5 mph S5.6 kmh S 5.8 mph9.3 kmh 30.01 in1016.3 mb - 0.00 in0.0 mm 0.00 in0.0 mm
09:10 AM 48.7°F9.3°C 45.9°F7.7°C 90% 3.5 mph SSW5.6 kmh SSW 5.8 mph9.3 kmh 30.01 in1016.3 mb - 0.00 in0.0 mm 0.00 in0.0 mm
09:20 AM 49.0°F9.4°C 45.6°F7.6°C 88% 3.5 mph SSW5.6 kmh SSW 8.1 mph13.0 kmh 30.02 in1016.6 mb - 0.00 in0.0 mm 0.00 in0.0 mm
09:30 AM 48.9°F9.4°C 44.9°F7.2°C 86% 5.8 mph S9.3 kmh S 9.2 mph14.8 kmh 30.03 in1016.9 mb - 0.00 in0.0 mm 0.00 in0.0 mm
09:40 AM 49.7°F9.8°C 45.0°F7.2°C 84% 4.6 mph S7.4 kmh S 5.8 mph9.3 kmh 30.03 in1016.9 mb - 0.00 in0.0 mm 0.00 in0.0 mm
09:50 AM 50.9°F10.5°C 45.6°F7.6°C 82% 3.5 mph SSW5.6 kmh SSW 4.6 mph7.4 kmh 30.04 in1017.3 mb - 0.00 in0.0 mm 0.00 in0.0 mm
10:00 AM 51.7°F10.9°C 44.7°F7.1°C 77% 4.6 mph S7.4 kmh S 9.2 mph14.8 kmh 30.04 in1017.3 mb - 0.00 in0.0 mm 0.00 in0.0 mm
10:10 AM 51.9°F11.1°C 43.9°F6.6°C 74% 10.4 mph S16.7 kmh S 15.0 mph24.1 kmh 30.05 in1017.6 mb - 0.00 in0.0 mm 0.00 in0.0 mm
10:20 AM 52.0°F11.1°C 43.6°F6.4°C 73% 9.2 mph S14.8 kmh S 13.8 mph22.2 kmh 30.05 in1017.6 mb - 0.00 in0.0 mm 0.00 in0.0 mm
10:30 AM 52.8°F11.6°C 42.9°F6.1°C 69% 8.1 mph SSE13.0 kmh SSE 15.0 mph24.1 kmh 30.05 in1017.6 mb - 0.00 in0.0 mm 0.00 in0.0 mm
10:40 AM 52.3°F11.3°C 42.8°F6.0°C 70% 6.9 mph S11.1 kmh S 13.8 mph22.2 kmh 30.06 in1017.9 mb - 0.00 in0.0 mm 0.00 in0.0 mm
10:50 AM 53.0°F11.7°C 42.3°F5.7°C 67% 8.1 mph S13.0 kmh S 11.5 mph18.5 kmh 30.06 in1017.9 mb - 0.00 in0.0 mm 0.00 in0.0 mm
11:00 AM 53.4°F11.9°C 43.1°F6.2°C 68% 5.8 mph S9.3 kmh S 9.2 mph14.8 kmh 30.06 in1017.9 mb - 0.00 in0.0 mm 0.00 in0.0 mm
11:10 AM 52.8°F11.6°C 43.3°F6.3°C 70% 6.9 mph S11.1 kmh S 8.1 mph13.0 kmh 30.06 in1017.9 mb - 0.00 in0.0 mm 0.00 in0.0 mm
11:20 AM 52.6°F11.4°C 42.4°F5.8°C 68% 9.2 mph S14.8 kmh S 12.7 mph20.4 kmh 30.06 in1017.9 mb - 0.00 in0.0 mm 0.00 in0.0 mm
11:30 AM 52.7°F11.5°C 42.8°F6.0°C 69% 6.9 mph S11.1 kmh S 12.7 mph20.4 kmh 30.07 in1018.3 mb - 0.00 in0.0 mm 0.00 in0.0 mm
11:40 AM 53.0°F11.7°C 42.7°F5.9°C 68% 8.1 mph S13.0 kmh S 13.8 mph22.2 kmh 30.07 in1018.3 mb - 0.00 in0.0 mm 0.00 in0.0 mm
11:50 AM 53.4°F11.9°C 41.9°F5.5°C 65% 9.2 mph S14.8 kmh S 12.7 mph20.4 kmh 30.07 in1018.3 mb - 0.00 in0.0 mm 0.00 in0.0 mm
12:00 PM 54.0°F12.2°C 42.5°F5.8°C 65% 9.2 mph S14.8 kmh S 15.0 mph24.1 kmh 30.08 in1018.6 mb - 0.00 in0.0 mm 0.00 in0.0 mm
12:10 PM 54.6°F12.6°C 44.3°F6.8°C 68% 8.1 mph S13.0 kmh S 11.5 mph18.5 kmh 30.08 in1018.6 mb - 0.00 in0.0 mm 0.00 in0.0 mm
12:20 PM 53.1°F11.7°C 42.5°F5.8°C 67% 8.1 mph SSE13.0 kmh SSE 11.5 mph18.5 kmh 30.09 in1019.0 mb - 0.00 in0.0 mm 0.00 in0.0 mm
12:30 PM 52.0°F11.1°C 41.4°F5.2°C 67% 8.1 mph S13.0 kmh S 11.5 mph18.5 kmh 30.09 in1019.0 mb - 0.00 in0.0 mm 0.00 in0.0 mm
12:40 PM 52.9°F11.6°C 42.2°F5.7°C 67% 6.9 mph S11.1 kmh S 11.5 mph18.5 kmh 30.08 in1018.6 mb - 0.00 in0.0 mm 0.00 in0.0 mm
12:50 PM 53.2°F11.8°C 42.5°F5.8°C 67% 4.6 mph SSW7.4 kmh SSW 5.8 mph9.3 kmh 30.08 in1018.6 mb - 0.00 in0.0 mm 0.00 in0.0 mm
01:00 PM 53.7°F12.1°C 40.9°F4.9°C 62% 9.2 mph SSW14.8 kmh SSW 13.8 mph22.2 kmh 30.09 in1019.0 mb - 0.00 in0.0 mm 0.00 in0.0 mm
01:10 PM 53.1°F11.7°C 40.0°F4.4°C 61% 9.2 mph SSE14.8 kmh SSE 11.5 mph18.5 kmh 30.09 in1019.0 mb - 0.00 in0.0 mm 0.00 in0.0 mm
01:20 PM 54.5°F12.5°C 43.0°F6.1°C 65% 8.1 mph S13.0 kmh S 11.5 mph18.5 kmh 30.09 in1019.0 mb - 0.00 in0.0 mm 0.00 in0.0 mm
01:30 PM 54.5°F12.5°C 40.9°F4.9°C 60% 8.1 mph SSW13.0 kmh SSW 13.8 mph22.2 kmh 30.09 in1019.0 mb - 0.00 in0.0 mm 0.00 in0.0 mm
01:40 PM 54.3°F12.4°C 40.7°F4.8°C 60% 8.1 mph SSW13.0 kmh SSW 10.4 mph16.7 kmh 30.09 in1019.0 mb - 0.00 in0.0 mm 0.00 in0.0 mm
01:50 PM 53.0°F11.7°C 40.8°F4.9°C 63% 12.7 mph SSW20.4 kmh SSW 16.1 mph25.9 kmh 30.09 in1019.0 mb - 0.00 in0.0 mm 0.00 in0.0 mm
02:00 PM 53.5°F11.9°C 41.7°F5.4°C 64% 9.2 mph S14.8 kmh S 12.7 mph20.4 kmh 30.09 in1019.0 mb - 0.00 in0.0 mm 0.00 in0.0 mm
02:10 PM 53.8°F12.1°C 41.5°F5.3°C 63% 11.5 mph S18.5 kmh S 18.4 mph29.6 kmh 30.10 in1019.3 mb - 0.00 in0.0 mm 0.00 in0.0 mm
02:20 PM 53.3°F11.8°C 41.9°F5.5°C 65% 9.2 mph SSW14.8 kmh SSW 15.0 mph24.1 kmh 30.10 in1019.3 mb - 0.00 in0.0 mm 0.00 in0.0 mm
02:30 PM 52.3°F11.3°C 42.1°F5.6°C 68% 9.2 mph SW14.8 kmh SW 15.0 mph24.1 kmh 30.10 in1019.3 mb - 0.00 in0.0 mm 0.00 in0.0 mm
02:40 PM 52.2°F11.2°C 43.0°F6.1°C 71% 9.2 mph SSW14.8 kmh SSW 12.7 mph20.4 kmh 30.11 in1019.6 mb - 0.00 in0.0 mm 0.00 in0.0 mm
02:50 PM 53.4°F11.9°C 43.5°F6.4°C 69% 9.2 mph SSW14.8 kmh SSW 11.5 mph18.5 kmh 30.11 in1019.6 mb - 0.00 in0.0 mm 0.00 in0.0 mm
03:00 PM 53.8°F12.1°C 43.8°F6.6°C 69% 9.2 mph S14.8 kmh S 15.0 mph24.1 kmh 30.12 in1020.0 mb - 0.00 in0.0 mm 0.00 in0.0 mm
03:10 PM 52.7°F11.5°C 42.8°F6.0°C 69% 4.6 mph S7.4 kmh S 6.9 mph11.1 kmh 30.13 in1020.3 mb - 0.00 in0.0 mm 0.00 in0.0 mm
03:20 PM 51.9°F11.1°C 42.5°F5.8°C 70% 10.4 mph SSW16.7 kmh SSW 13.8 mph22.2 kmh 30.13 in1020.3 mb - 0.00 in0.0 mm 0.00 in0.0 mm
03:30 PM 51.2°F10.7°C 42.5°F5.8°C 72% 6.9 mph S11.1 kmh S 11.5 mph18.5 kmh 30.14 in1020.7 mb - 0.00 in0.0 mm 0.00 in0.0 mm
03:40 PM 51.0°F10.6°C 43.4°F6.3°C 75% 6.9 mph SSW11.1 kmh SSW 11.5 mph18.5 kmh 30.14 in1020.7 mb - 0.00 in0.0 mm 0.00 in0.0 mm
03:50 PM 50.9°F10.5°C 43.3°F6.3°C 75% 5.8 mph SW9.3 kmh SW 6.9 mph11.1 kmh 30.14 in1020.7 mb - 0.00 in0.0 mm 0.00 in0.0 mm
04:00 PM 51.0°F10.6°C 43.4°F6.3°C 75% 8.1 mph S13.0 kmh S 11.5 mph18.5 kmh 30.15 in1021.0 mb - 0.00 in0.0 mm 0.00 in0.0 mm
04:10 PM 50.8°F10.4°C 43.5°F6.4°C 76% 9.2 mph S14.8 kmh S 10.4 mph16.7 kmh 30.15 in1021.0 mb - 0.00 in0.0 mm 0.00 in0.0 mm
04:20 PM 50.8°F10.4°C 43.5°F6.4°C 76% 6.9 mph SSW11.1 kmh SSW 10.4 mph16.7 kmh 30.15 in1021.0 mb - 0.00 in0.0 mm 0.00 in0.0 mm
04:30 PM 50.9°F10.5°C 43.6°F6.4°C 76% 3.5 mph SSW5.6 kmh SSW 6.9 mph11.1 kmh 30.15 in1021.0 mb - 0.00 in0.0 mm 0.00 in0.0 mm
04:40 PM 50.4°F10.2°C 42.8°F6.0°C 75% 6.9 mph SSW11.1 kmh SSW 15.0 mph24.1 kmh 30.16 in1021.3 mb - 0.00 in0.0 mm 0.00 in0.0 mm
04:50 PM 49.9°F9.9°C 42.3°F5.7°C 75% 5.8 mph SSW9.3 kmh SSW 6.9 mph11.1 kmh 30.16 in1021.3 mb - 0.00 in0.0 mm 0.00 in0.0 mm
05:00 PM 49.8°F9.9°C 42.5°F5.8°C 76% 8.1 mph SSW13.0 kmh SSW 10.4 mph16.7 kmh 30.16 in1021.3 mb - 0.00 in0.0 mm 0.00 in0.0 mm
05:10 PM 49.8°F9.9°C 42.5°F5.8°C 76% 6.9 mph SSW11.1 kmh SSW 11.5 mph18.5 kmh 30.16 in1021.3 mb - 0.00 in0.0 mm 0.00 in0.0 mm
05:20 PM 49.8°F9.9°C 42.5°F5.8°C 76% 3.5 mph SSW5.6 kmh SSW 6.9 mph11.1 kmh 30.16 in1021.3 mb - 0.00 in0.0 mm 0.00 in0.0 mm
05:30 PM 49.6°F9.8°C 42.3°F5.7°C 76% 3.5 mph SW5.6 kmh SW 8.1 mph13.0 kmh 30.16 in1021.3 mb - 0.00 in0.0 mm 0.00 in0.0 mm
05:40 PM 49.2°F9.6°C 42.3°F5.7°C 77% 6.9 mph SW11.1 kmh SW 10.4 mph16.7 kmh 30.16 in1021.3 mb - 0.00 in0.0 mm 0.00 in0.0 mm
05:50 PM 48.8°F9.3°C 41.9°F5.5°C 77% 4.6 mph SW7.4 kmh SW 8.1 mph13.0 kmh 30.17 in1021.7 mb - 0.00 in0.0 mm 0.00 in0.0 mm
06:00 PM 48.4°F9.1°C 41.5°F5.3°C 77% 6.9 mph SW11.1 kmh SW 8.1 mph13.0 kmh 30.17 in1021.7 mb - 0.00 in0.0 mm 0.00 in0.0 mm
06:10 PM 48.3°F9.1°C 42.1°F5.6°C 79% 4.6 mph SW7.4 kmh SW 10.4 mph16.7 kmh 30.18 in1022.0 mb - 0.00 in0.0 mm 0.00 in0.0 mm
06:20 PM 48.4°F9.1°C 42.2°F5.7°C 79% 5.8 mph SW9.3 kmh SW 11.5 mph18.5 kmh 30.18 in1022.0 mb - 0.00 in0.0 mm 0.00 in0.0 mm
06:30 PM 48.6°F9.2°C 42.7°F5.9°C 80% 6.9 mph SSW11.1 kmh SSW 11.5 mph18.5 kmh 30.20 in1022.7 mb - 0.00 in0.0 mm 0.00 in0.0 mm
06:40 PM 48.8°F9.3°C 42.9°F6.1°C 80% 5.8 mph SW9.3 kmh SW 15.0 mph24.1 kmh 30.20 in1022.7 mb - 0.00 in0.0 mm 0.00 in0.0 mm
06:50 PM 48.7°F9.3°C 42.8°F6.0°C 80% 8.1 mph SSW13.0 kmh SSW 11.5 mph18.5 kmh 30.21 in1023.0 mb - 0.00 in0.0 mm 0.00 in0.0 mm
07:00 PM 48.6°F9.2°C 43.0°F6.1°C 81% 5.8 mph SW9.3 kmh SW 6.9 mph11.1 kmh 30.22 in1023.4 mb - 0.00 in0.0 mm 0.00 in0.0 mm
07:10 PM 48.5°F9.2°C 42.9°F6.1°C 81% 9.2 mph SW14.8 kmh SW 11.5 mph18.5 kmh 30.22 in1023.4 mb - 0.00 in0.0 mm 0.00 in0.0 mm
07:20 PM 48.5°F9.2°C 42.9°F6.1°C 81% 6.9 mph SW11.1 kmh SW 13.8 mph22.2 kmh 30.22 in1023.4 mb - 0.00 in0.0 mm 0.00 in0.0 mm
07:30 PM 48.3°F9.1°C 42.7°F5.9°C 81% 8.1 mph SW13.0 kmh SW 16.1 mph25.9 kmh 30.22 in1023.4 mb - 0.00 in0.0 mm 0.00 in0.0 mm
07:40 PM 48.1°F8.9°C 42.5°F5.8°C 81% 6.9 mph SW11.1 kmh SW 11.5 mph18.5 kmh 30.22 in1023.4 mb - 0.00 in0.0 mm 0.00 in0.0 mm
07:50 PM 47.9°F8.8°C 42.3°F5.7°C 81% 5.8 mph SW9.3 kmh SW 10.4 mph16.7 kmh 30.22 in1023.4 mb - 0.00 in0.0 mm 0.00 in0.0 mm
08:00 PM 47.7°F8.7°C 42.5°F5.8°C 82% 6.9 mph SW11.1 kmh SW 11.5 mph18.5 kmh 30.23 in1023.7 mb - 0.00 in0.0 mm 0.00 in0.0 mm
08:10 PM 47.6°F8.7°C 42.4°F5.8°C 82% 6.9 mph SW11.1 kmh SW 9.2 mph14.8 kmh 30.23 in1023.7 mb - 0.00 in0.0 mm 0.00 in0.0 mm
08:20 PM 47.7°F8.7°C 42.4°F5.8°C 82% 8.1 mph SW13.0 kmh SW 11.5 mph18.5 kmh 30.23 in1023.7 mb - 0.00 in0.0 mm 0.00 in0.0 mm
08:30 PM 47.8°F8.8°C 42.6°F5.9°C 82% 5.8 mph SSW9.3 kmh SSW 10.4 mph16.7 kmh 30.24 in1024.0 mb - 0.00 in0.0 mm 0.00 in0.0 mm
08:40 PM 47.8°F8.8°C 42.6°F5.9°C 82% 6.9 mph SW11.1 kmh SW 12.7 mph20.4 kmh 30.24 in1024.0 mb - 0.00 in0.0 mm 0.00 in0.0 mm
08:50 PM 47.9°F8.8°C 43.0°F6.1°C 83% 8.1 mph SW13.0 kmh SW 11.5 mph18.5 kmh 30.24 in1024.0 mb - 0.00 in0.0 mm 0.00 in0.0 mm
09:00 PM 47.9°F8.8°C 43.0°F6.1°C 83% 8.1 mph SW13.0 kmh SW 11.5 mph18.5 kmh 30.24 in1024.0 mb - 0.00 in0.0 mm 0.00 in0.0 mm
09:10 PM 47.7°F8.7°C 42.8°F6.0°C 83% 11.5 mph SW18.5 kmh SW 17.3 mph27.8 kmh 30.24 in1024.0 mb - 0.00 in0.0 mm 0.00 in0.0 mm
09:20 PM 47.6°F8.7°C 43.0°F6.1°C 84% 6.9 mph SW11.1 kmh SW 9.2 mph14.8 kmh 30.23 in1023.7 mb - 0.00 in0.0 mm 0.00 in0.0 mm
09:30 PM 47.5°F8.6°C 42.9°F6.1°C 84% 6.9 mph SW11.1 kmh SW 11.5 mph18.5 kmh 30.23 in1023.7 mb - 0.00 in0.0 mm 0.00 in0.0 mm
09:40 PM 47.4°F8.6°C 42.8°F6.0°C 84% 6.9 mph SW11.1 kmh SW 9.2 mph14.8 kmh 30.23 in1023.7 mb - 0.00 in0.0 mm 0.00 in0.0 mm
09:50 PM 47.4°F8.6°C 42.8°F6.0°C 84% 6.9 mph SW11.1 kmh SW 10.4 mph16.7 kmh 30.23 in1023.7 mb - 0.00 in0.0 mm 0.00 in0.0 mm
10:00 PM 47.3°F8.5°C 42.7°F5.9°C 84% 9.2 mph SW14.8 kmh SW 11.5 mph18.5 kmh 30.23 in1023.7 mb - 0.00 in0.0 mm 0.00 in0.0 mm
10:10 PM 47.3°F8.5°C 43.0°F6.1°C 85% 9.2 mph SW14.8 kmh SW 15.0 mph24.1 kmh 30.22 in1023.4 mb - 0.00 in0.0 mm 0.00 in0.0 mm
10:20 PM 47.3°F8.5°C 43.0°F6.1°C 85% 8.1 mph SW13.0 kmh SW 16.1 mph25.9 kmh 30.21 in1023.0 mb - 0.00 in0.0 mm 0.00 in0.0 mm
10:30 PM 47.2°F8.4°C 42.9°F6.1°C 85% 6.9 mph SW11.1 kmh SW 10.4 mph16.7 kmh 30.22 in1023.4 mb - 0.00 in0.0 mm 0.00 in0.0 mm
10:40 PM 47.3°F8.5°C 43.0°F6.1°C 85% 11.5 mph WSW18.5 kmh WSW 18.4 mph29.6 kmh 30.22 in1023.4 mb - 0.00 in0.0 mm 0.00 in0.0 mm
10:50 PM 47.4°F8.6°C 43.1°F6.2°C 85% 8.1 mph SW13.0 kmh SW 12.7 mph20.4 kmh 30.23 in1023.7 mb - 0.00 in0.0 mm 0.00 in0.0 mm
11:00 PM 47.3°F8.5°C 43.0°F6.1°C 85% 5.8 mph SW9.3 kmh SW 8.1 mph13.0 kmh 30.23 in1023.7 mb - 0.00 in0.0 mm 0.00 in0.0 mm
11:10 PM 47.4°F8.6°C 43.1°F6.2°C 85% 8.1 mph SW13.0 kmh SW 11.5 mph18.5 kmh 30.24 in1024.0 mb - 0.00 in0.0 mm 0.00 in0.0 mm
11:20 PM 47.5°F8.6°C 43.2°F6.2°C 85% 6.9 mph SW11.1 kmh SW 10.4 mph16.7 kmh 30.23 in1023.7 mb - 0.00 in0.0 mm 0.00 in0.0 mm
11:30 PM 47.5°F8.6°C 43.2°F6.2°C 85% 9.2 mph SW14.8 kmh SW 12.7 mph20.4 kmh 30.23 in1023.7 mb - 0.00 in0.0 mm 0.00 in0.0 mm
11:40 PM 47.5°F8.6°C 43.2°F6.2°C 85% 6.9 mph SW11.1 kmh SW 10.4 mph16.7 kmh 30.23 in1023.7 mb - 0.00 in0.0 mm 0.00 in0.0 mm
11:50 PM 47.6°F8.7°C 43.3°F6.3°C 85% 8.1 mph SW13.0 kmh SW 15.0 mph24.1 kmh 30.23 in1023.7 mb - 0.00 in0.0 mm 0.00 in0.0 mm